Time;durP1;ratioP1;P1;durP2;ratioP2;P2;SDS_P1;SDS_P2;PMS_P1;PMS_P2;Temp;Humidity;BMP_temperature;BMP_pressure;BME280_temperature;BME280_humidity;BME280_pressure;Samples;Min_cycle;Max_cycle;Signal;HPM_P1;HPM_P2
2022/10/13 00:00:08;;;;;;;17.67;12.40;;;;;;;11.37;96.08;98662.91;5215451;22;20614;-91
2022/10/13 00:02:14;;;;;;;17.30;12.80;;;;;;;11.34;95.75;98657.88;5213644;22;20563;-93
2022/10/13 00:04:18;;;;;;;18.50;13.40;;;;;;;11.34;95.41;98660.50;5190823;22;21218;-93
2022/10/13 00:06:25;;;;;;;22.47;13.20;;;;;;;11.30;96.06;98662.44;5241921;22;20716;-91
2022/10/13 00:08:29;;;;;;;17.67;12.93;;;;;;;11.26;95.67;98654.94;5216023;22;20594;-92
2022/10/13 00:10:36;;;;;;;19.80;13.50;;;;;;;11.26;95.51;98660.16;5216340;22;20578;-92
2022/10/13 00:12:41;;;;;;;18.47;12.93;;;;;;;11.26;96.14;98660.16;5216954;22;20570;-91
2022/10/13 00:14:47;;;;;;;25.10;12.83;;;;;;;11.23;95.50;98668.16;5241770;22;20584;-91
2022/10/13 00:16:51;;;;;;;20.50;13.90;;;;;;;11.22;95.60;98665.66;5190582;22;20598;-92
2022/10/13 00:18:54;;;;;;;18.57;12.00;;;;;;;11.21;94.61;98666.56;5216718;22;20582;-91
2022/10/13 00:20:58;;;;;;;20.93;13.20;;;;;;;11.20;96.51;98667.50;5189701;22;20626;-91
2022/10/13 00:23:04;;;;;;;18.00;11.90;;;;;;;11.19;95.10;98663.22;5241459;22;21169;-91
2022/10/13 00:25:09;;;;;;;18.47;12.50;;;;;;;11.19;94.70;98671.88;5214604;22;20873;-91
2022/10/13 00:27:13;;;;;;;22.07;13.80;;;;;;;11.18;96.96;98667.59;5216185;22;20701;-92
2022/10/13 00:29:16;;;;;;;24.30;14.57;;;;;;;11.20;96.09;98667.50;5215984;22;21109;-92
2022/10/13 00:31:21;;;;;;;28.47;14.30;;;;;;;11.19;96.94;98674.50;5215556;22;20586;-92
2022/10/13 00:33:25;;;;;;;23.40;15.20;;;;;;;11.19;96.67;98669.28;5215912;22;20571;-92
2022/10/13 00:35:28;;;;;;;21.33;13.97;;;;;;;11.19;97.87;98673.66;5189123;22;20598;-94
2022/10/13 00:37:32;;;;;;;24.57;14.10;;;;;;;11.17;97.81;98671.16;5214979;22;20640;-92
2022/10/13 00:39:37;;;;;;;21.77;13.60;;;;;;;11.14;96.77;98666.13;5188984;22;20992;-93
2022/10/13 00:41:40;;;;;;;18.80;13.57;;;;;;;11.14;97.03;98665.25;5189982;22;20567;-92
2022/10/13 00:44:01;;;;;;;21.53;14.20;;;;;;;11.12;98.01;98669.75;5215811;22;20669;-92
2022/10/13 00:46:05;;;;;;;22.67;14.57;;;;;;;11.13;96.71;98668.81;5189533;22;20589;-91
2022/10/13 00:48:09;;;;;;;22.63;14.30;;;;;;;11.12;97.07;98665.34;5242182;22;20578;-92
2022/10/13 00:50:15;;;;;;;20.23;12.83;;;;;;;11.10;98.33;98664.63;5215283;22;20648;-92
2022/10/13 00:52:21;;;;;;;21.40;12.50;;;;;;;11.08;96.50;98670.84;5216152;22;20588;-91
2022/10/13 00:54:25;;;;;;;26.87;13.10;;;;;;;11.06;97.08;98663.13;5215884;22;21217;-91
2022/10/13 00:56:32;;;;;;;26.60;13.50;;;;;;;11.07;96.78;98671.81;5216260;22;20610;-92
2022/10/13 00:58:36;;;;;;;19.10;12.90;;;;;;;11.05;98.94;98661.47;5216300;22;20648;-92
2022/10/13 01:00:40;;;;;;;18.70;13.00;;;;;;;11.06;97.70;98664.91;5190380;22;20615;-92
2022/10/13 01:02:44;;;;;;;18.20;12.93;;;;;;;11.04;98.27;98659.78;5215832;22;20620;-91
2022/10/13 01:04:51;;;;;;;44.33;14.53;;;;;;;11.04;96.74;98667.59;5216525;22;20890;-93
2022/10/13 01:06:55;;;;;;;27.13;12.87;;;;;;;11.04;96.26;98662.38;5215957;22;20605;-92
2022/10/13 01:08:58;;;;;;;19.70;13.33;;;;;;;11.00;96.95;98657.44;5215817;22;20640;-92
2022/10/13 01:11:13;;;;;;;16.83;12.30;;;;;;;10.96;97.97;98659.41;5217669;22;21105;-92
2022/10/13 01:13:23;;;;;;;14.97;11.30;;;;;;;10.96;97.48;98666.38;5217816;22;21108;-92
2022/10/13 01:15:30;;;;;;;17.00;12.27;;;;;;;10.97;97.23;98662.84;5217465;22;20609;-92
2022/10/13 01:17:37;;;;;;;14.97;11.20;;;;;;;10.92;97.25;98660.50;5217519;22;21135;-92
2022/10/13 01:20:04;;;;;;;18.50;11.47;;;;;;;10.85;97.02;98660.97;5192005;22;21115;-91
2022/10/13 01:22:18;;;;;;;15.80;11.60;;;;;;;10.81;95.67;98651.69;5191766;22;20575;-92
2022/10/13 01:24:43;;;;;;;16.00;12.37;;;;;;;10.78;96.05;98651.00;5192061;22;21094;-92
2022/10/13 01:27:14;;;;;;;18.40;13.17;;;;;;;10.78;96.80;98651.00;5218121;22;20614;-91
2022/10/13 01:29:57;;;;;;;21.63;12.77;;;;;;;10.77;97.89;98644.13;5191213;22;20661;-92
2022/10/13 01:32:07;;;;;;;24.97;13.43;;;;;;;10.78;98.30;98640.56;5103665;22;20586;-92
2022/10/13 01:34:16;;;;;;;21.17;12.97;;;;;;;10.77;98.03;98641.50;5216662;22;21105;-91
2022/10/13 01:36:26;;;;;;;20.83;13.13;;;;;;;10.80;97.59;98634.34;5216206;22;20617;-92
2022/10/13 01:38:35;;;;;;;29.37;13.10;;;;;;;10.79;98.17;98645.69;5216153;22;20574;-91
2022/10/13 01:40:44;;;;;;;22.20;13.83;;;;;;;10.80;98.29;98646.53;5241549;22;20627;-91
2022/10/13 01:42:53;;;;;;;22.23;14.00;;;;;;;10.80;97.79;98648.19;5217267;22;20570;-92
2022/10/13 01:45:01;;;;;;;18.30;12.10;;;;;;;10.80;98.36;98645.59;5217225;22;20574;-92
2022/10/13 01:47:07;;;;;;;19.33;12.70;;;;;;;10.85;98.05;98645.31;5216964;22;21117;-93
2022/10/13 01:49:14;;;;;;;16.40;12.80;;;;;;;10.86;98.61;98647.00;5192292;22;20613;-92
2022/10/13 01:51:19;;;;;;;17.53;11.90;;;;;;;10.85;98.69;98640.09;5217172;22;20682;-93
2022/10/13 01:53:26;;;;;;;17.80;12.43;;;;;;;10.87;98.12;98641.69;5217614;22;20573;-92
2022/10/13 01:55:30;;;;;;;16.70;12.83;;;;;;;10.90;98.78;98641.50;5243617;22;21013;-92
2022/10/13 01:57:36;;;;;;;16.95;12.65;;;;;;;10.91;99.46;98637.94;5217598;22;20950;-92
2022/10/13 01:59:39;;;;;;;16.40;12.30;;;;;;;10.92;99.49;98630.97;5166574;23;20537;-91
2022/10/13 02:01:51;;;;;;;13.77;11.70;;;;;;;10.95;98.67;98633.41;5191454;22;20952;-92
2022/10/13 02:04:09;;;;;;;15.67;12.40;;;;;;;10.97;98.21;98639.34;5217395;22;20578;-92
2022/10/13 02:06:18;;;;;;;18.10;13.70;;;;;;;10.96;99.21;98638.53;5217462;22;20628;-92
2022/10/13 02:08:28;;;;;;;15.77;12.30;;;;;;;10.98;99.24;98639.25;5217366;22;20588;-92
2022/10/13 02:10:35;;;;;;;15.37;11.83;;;;;;;10.99;99.47;98635.72;5191137;22;20585;-92
2022/10/13 02:12:45;;;;;;;15.18;11.95;;;;;;;11.00;98.42;98633.94;5217129;22;20579;-91
2022/10/13 02:14:51;;;;;;;15.20;11.97;;;;;;;11.01;99.33;98633.84;5217151;22;20169;-92
2022/10/13 02:16:56;;;;;;;16.40;12.67;;;;;;;11.03;99.95;98624.16;5217210;22;20578;-92
2022/10/13 02:19:03;;;;;;;18.73;12.30;;;;;;;11.02;99.46;98625.09;5191835;22;20579;-93
2022/10/13 02:21:06;;;;;;;17.37;13.37;;;;;;;11.06;98.96;98631.78;5190914;22;21176;-91
2022/10/13 02:23:12;;;;;;;18.27;12.73;;;;;;;11.08;98.07;98636.91;5216093;22;20617;-92
2022/10/13 02:25:15;;;;;;;19.67;13.20;;;;;;;11.07;98.99;98635.25;5216178;22;20901;-91
2022/10/13 02:27:19;;;;;;;14.90;12.13;;;;;;;11.11;99.41;98629.75;5215440;22;20661;-92
2022/10/13 02:29:23;;;;;;;17.17;12.90;;;;;;;11.14;100.00;98639.16;5215986;22;20578;-92
2022/10/13 02:31:26;;;;;;;17.43;12.90;;;;;;;11.14;98.71;98636.53;5215822;22;20574;-92
2022/10/13 02:33:30;;;;;;;16.63;12.10;;;;;;;11.16;98.95;98638.13;5216306;22;20903;-92
2022/10/13 02:35:35;;;;;;;21.47;12.70;;;;;;;11.18;99.53;98641.47;5215948;22;20582;-92
2022/10/13 02:37:39;;;;;;;19.70;13.07;;;;;;;11.22;98.89;98642.97;5214745;22;20944;-92
2022/10/13 02:39:45;;;;;;;17.30;12.50;;;;;;;11.27;99.29;98651.34;5216127;22;20563;-93
2022/10/13 02:41:49;;;;;;;16.07;11.83;;;;;;;11.27;98.71;98640.91;5189001;22;20617;-92
2022/10/13 02:43:52;;;;;;;19.47;12.83;;;;;;;11.30;98.08;98653.78;5217182;22;20658;-92
2022/10/13 02:45:56;;;;;;;14.90;12.17;;;;;;;11.28;99.67;98646.03;5215376;22;20973;-93
2022/10/13 02:48:02;;;;;;;15.60;12.80;;;;;;;11.29;99.26;98645.13;5216591;22;20674;-92
2022/10/13 02:50:08;;;;;;;16.13;12.60;;;;;;;11.33;100.00;98648.38;5216363;22;20578;-91
2022/10/13 02:52:13;;;;;;;13.80;12.10;;;;;;;11.35;99.28;98651.72;5216939;22;20574;-91
2022/10/13 02:54:17;;;;;;;16.13;12.57;;;;;;;11.36;100.00;98650.78;5191907;22;20621;-92
2022/10/13 02:56:21;;;;;;;15.50;12.23;;;;;;;11.40;100.00;98647.06;5217173;22;21027;-92
2022/10/13 02:58:24;;;;;;;15.07;12.10;;;;;;;11.41;100.00;98646.97;5216212;22;20570;-92
2022/10/13 03:00:27;;;;;;;20.00;13.13;;;;;;;11.44;100.00;98638.06;5216126;22;20643;-92
2022/10/13 03:02:31;;;;;;;17.90;13.50;;;;;;;11.46;100.00;98650.13;5216883;22;20634;-92
2022/10/13 03:04:36;;;;;;;16.57;13.10;;;;;;;11.48;99.18;98643.03;5242782;22;20582;-93
2022/10/13 03:06:39;;;;;;;23.37;12.87;;;;;;;11.49;99.44;98644.72;5243072;22;20634;-93
2022/10/13 03:08:45;;;;;;;19.73;13.13;;;;;;;11.52;100.00;98641.94;5216977;22;20947;-92
2022/10/13 03:10:48;;;;;;;17.60;12.53;;;;;;;11.54;99.82;98647.88;5216956;22;20924;-91
2022/10/13 03:12:52;;;;;;;22.93;12.90;;;;;;;11.55;100.00;98636.50;5217444;22;20674;-92
2022/10/13 03:14:55;;;;;;;20.23;12.73;;;;;;;11.58;100.00;98638.09;5216686;22;21121;-92
2022/10/13 03:16:58;;;;;;;17.30;12.67;;;;;;;11.58;99.47;98644.16;5190941;22;20674;-91
2022/10/13 03:19:02;;;;;;;17.17;12.60;;;;;;;11.59;100.00;98645.84;5216318;22;20649;-92
2022/10/13 03:21:07;;;;;;;17.67;13.10;;;;;;;11.64;100.00;98641.16;5215412;22;20625;-92
2022/10/13 03:23:13;;;;;;;18.53;12.73;;;;;;;11.65;100.00;98636.75;5215451;22;20962;-91
2022/10/13 03:25:18;;;;;;;19.10;12.80;;;;;;;11.66;100.00;98635.84;5189706;22;20579;-91
2022/10/13 03:27:21;;;;;;;15.03;12.47;;;;;;;11.69;100.00;98633.03;5215234;22;20582;-92
2022/10/13 03:29:24;;;;;;;15.53;11.80;;;;;;;11.71;100.00;98634.56;5215452;22;20624;-92
2022/10/13 03:31:28;;;;;;;17.97;12.37;;;;;;;11.71;100.00;98636.38;5216296;22;20582;-92
2022/10/13 03:33:39;;;;;;;18.20;12.47;;;;;;;11.75;99.64;98637.84;5215033;22;21180;-92
2022/10/13 03:35:43;;;;;;;15.87;12.97;;;;;;;11.73;100.00;98629.25;5215059;22;21199;-92
2022/10/13 03:37:46;;;;;;;17.27;13.23;;;;;;;11.71;99.10;98618.06;5189386;22;20583;-91
2022/10/13 03:39:50;;;;;;;15.03;12.30;;;;;;;11.72;100.00;98625.81;5189594;22;20958;-91
2022/10/13 03:41:56;;;;;;;17.67;12.60;;;;;;;11.74;99.75;98621.31;5190156;22;20611;-92
2022/10/13 03:44:00;;;;;;;14.97;12.30;;;;;;;11.75;100.00;98626.44;5191105;22;20590;-92
2022/10/13 03:46:06;;;;;;;20.50;13.10;;;;;;;11.73;100.00;98622.28;5215061;22;20622;-91
2022/10/13 03:48:09;;;;;;;20.63;13.20;;;;;;;11.76;100.00;98620.28;5241830;22;21124;-91
2022/10/13 03:50:13;;;;;;;17.77;13.97;;;;;;;11.80;100.00;98613.09;5216558;22;20583;-92
2022/10/13 03:52:17;;;;;;;16.00;12.83;;;;;;;11.79;100.00;98612.25;5216457;22;20586;-91
2022/10/13 03:54:21;;;;;;;16.90;12.80;;;;;;;11.84;100.00;98614.56;5190543;22;20629;-91
2022/10/13 03:56:28;;;;;;;20.50;12.70;;;;;;;11.87;100.00;98614.38;5215769;22;20613;-91
2022/10/13 03:58:32;;;;;;;16.73;12.70;;;;;;;11.85;100.00;98614.47;5216459;22;20918;-91
2022/10/13 04:00:36;;;;;;;21.50;12.70;;;;;;;11.86;100.00;98600.47;5216608;22;20666;-92
2022/10/13 04:02:40;;;;;;;17.10;12.70;;;;;;;11.88;100.00;98611.66;5190533;22;20625;-91
2022/10/13 04:04:43;;;;;;;16.17;12.67;;;;;;;11.91;100.00;98606.22;5188326;22;20619;-92
2022/10/13 04:06:47;;;;;;;17.20;12.70;;;;;;;11.92;100.00;98613.16;5216358;22;20671;-92
2022/10/13 04:08:51;;;;;;;19.43;12.77;;;;;;;11.94;100.00;98611.25;5216386;22;20590;-92
2022/10/13 04:10:59;;;;;;;16.00;13.17;;;;;;;11.98;100.00;98614.50;5215353;22;21188;-92
2022/10/13 04:13:02;;;;;;;15.77;12.47;;;;;;;12.00;100.00;98610.88;5164920;22;20572;-91
2022/10/13 04:15:09;;;;;;;14.83;12.07;;;;;;;12.02;100.00;98622.03;5216088;22;20571;-90
2022/10/13 04:17:13;;;;;;;17.47;12.33;;;;;;;12.03;100.00;98615.88;5216152;22;20570;-91
2022/10/13 04:19:17;;;;;;;16.10;12.40;;;;;;;12.01;100.00;98609.94;5216124;22;20654;-91
2022/10/13 04:21:20;;;;;;;15.73;11.23;;;;;;;12.02;100.00;98608.97;5189750;22;20579;-91
2022/10/13 04:23:24;;;;;;;19.60;12.77;;;;;;;12.03;100.00;98608.03;5241529;22;20628;-91
2022/10/13 04:25:27;;;;;;;14.93;12.53;;;;;;;12.04;100.00;98612.34;5215246;22;20985;-91
2022/10/13 04:27:31;;;;;;;17.47;13.00;;;;;;;12.04;100.00;98608.88;5215920;22;20962;-91
2022/10/13 04:29:35;;;;;;;20.40;12.40;;;;;;;12.06;100.00;98607.03;5215270;22;20918;-92
2022/10/13 04:31:41;;;;;;;19.83;13.40;;;;;;;12.06;100.00;98602.63;5216001;22;20600;-92
2022/10/13 04:33:45;;;;;;;15.77;12.83;;;;;;;12.07;100.00;98609.53;5213839;22;20570;-91
2022/10/13 04:35:49;;;;;;;19.40;13.97;;;;;;;12.06;100.00;98607.84;5188669;22;20590;-91
2022/10/13 04:37:52;;;;;;;20.67;12.83;;;;;;;12.08;100.00;98600.72;5215776;22;20670;-91
2022/10/13 04:39:55;;;;;;;16.87;13.73;;;;;;;12.10;99.95;98608.47;5215446;22;20574;-91
2022/10/13 04:41:59;;;;;;;19.50;12.87;;;;;;;12.10;100.00;98603.25;5189813;22;20571;-91
2022/10/13 04:44:05;;;;;;;17.50;13.00;;;;;;;12.12;100.00;98601.34;5190086;22;20646;-93
2022/10/13 04:46:17;;;;;;;16.40;13.10;;;;;;;12.11;100.00;98600.53;5215970;22;20616;-91
2022/10/13 04:48:22;;;;;;;18.03;13.13;;;;;;;12.16;100.00;98602.84;5215934;22;20577;-92
2022/10/13 04:50:25;;;;;;;21.50;16.67;;;;;;;12.16;100.00;98603.66;5216490;22;20612;-92
2022/10/13 04:52:34;;;;;;;17.23;14.00;;;;;;;12.13;99.30;98601.25;5217238;22;21089;-92
2022/10/13 04:54:38;;;;;;;20.07;13.90;;;;;;;12.11;100.00;98597.09;5215711;22;20652;-91
2022/10/13 04:56:41;;;;;;;17.43;13.00;;;;;;;12.11;100.00;98600.53;5216528;22;20934;-91
2022/10/13 04:58:45;;;;;;;17.80;14.30;;;;;;;12.09;100.00;98597.19;5190784;22;21107;-91
2022/10/13 05:00:50;;;;;;;18.03;13.70;;;;;;;12.08;100.00;98590.28;5190271;22;20579;-91
2022/10/13 05:02:53;;;;;;;17.70;13.40;;;;;;;12.09;100.00;98586.72;5215855;22;20614;-92
2022/10/13 05:04:58;;;;;;;16.50;12.97;;;;;;;12.10;100.00;98587.56;5214666;22;20592;-93
2022/10/13 05:07:02;;;;;;;15.83;12.83;;;;;;;12.07;100.00;98585.13;5190407;22;20599;-91
2022/10/13 05:09:21;;;;;;;18.10;13.60;;;;;;;12.04;100.00;98583.59;5216651;22;20570;-91
2022/10/13 05:11:25;;;;;;;14.90;12.97;;;;;;;12.03;100.00;98587.13;5216984;22;20596;-91
2022/10/13 05:13:29;;;;;;;18.50;13.63;;;;;;;12.01;100.00;98586.41;5244694;22;20569;-92
2022/10/13 05:15:33;;;;;;;17.43;12.33;;;;;;;12.04;100.00;98587.97;5216951;22;21151;-92
2022/10/13 05:17:36;;;;;;;16.27;13.90;;;;;;;12.00;99.75;98579.50;5220371;22;20605;-91
2022/10/13 05:19:43;;;;;;;20.90;13.17;;;;;;;11.99;99.69;98580.41;5191296;22;20574;-92
2022/10/13 05:21:49;;;;;;;20.53;14.67;;;;;;;11.97;100.00;98582.31;5216734;22;20918;-92
2022/10/13 05:23:54;;;;;;;15.83;13.23;;;;;;;12.00;99.67;98587.34;5217232;22;20606;-91
2022/10/13 05:26:01;;;;;;;16.77;12.97;;;;;;;11.99;100.00;98592.66;5216194;22;21205;-91
2022/10/13 05:28:05;;;;;;;17.57;13.27;;;;;;;11.98;99.61;98601.44;5216206;22;20578;-92
2022/10/13 05:30:09;;;;;;;19.40;13.47;;;;;;;11.98;99.29;98601.44;5190627;22;20589;-92
2022/10/13 05:32:12;;;;;;;18.50;13.23;;;;;;;11.97;100.00;98603.22;5217152;22;20571;-92
2022/10/13 05:34:15;;;;;;;17.73;13.67;;;;;;;11.96;100.00;98598.09;5217121;22;20646;-93
2022/10/13 05:36:21;;;;;;;22.00;13.10;;;;;;;11.93;99.26;98591.28;5216778;22;20594;-92
2022/10/13 05:38:26;;;;;;;17.73;13.70;;;;;;;11.95;99.58;98602.50;5216907;22;20579;-92
2022/10/13 05:40:30;;;;;;;14.50;12.20;;;;;;;11.93;100.00;98604.34;5190576;22;21228;-91
2022/10/13 05:42:36;;;;;;;20.60;13.03;;;;;;;11.91;99.78;98598.41;5215796;22;20640;-91
2022/10/13 05:44:39;;;;;;;17.73;13.53;;;;;;;11.91;98.59;98603.63;5216552;22;20644;-91
2022/10/13 05:46:42;;;;;;;16.00;12.90;;;;;;;11.90;99.42;98604.53;5190969;22;20571;-92
2022/10/13 05:48:45;;;;;;;19.07;13.50;;;;;;;11.90;100.00;98601.09;5216644;22;20602;-92
2022/10/13 05:50:48;;;;;;;18.10;13.00;;;;;;;11.90;99.09;98604.53;5216724;22;21112;-92
2022/10/13 05:52:51;;;;;;;19.87;13.93;;;;;;;11.92;99.82;98609.69;5215617;22;21094;-91
2022/10/13 05:54:58;;;;;;;16.17;12.53;;;;;;;11.92;100.00;98610.53;5216445;22;20892;-91
2022/10/13 05:57:03;;;;;;;17.70;13.77;;;;;;;11.92;99.52;98605.31;5218269;22;20590;-91
2022/10/13 05:59:08;;;;;;;17.23;13.47;;;;;;;11.96;100.00;98612.00;5218080;22;20574;-92
2022/10/13 06:01:17;;;;;;;19.83;14.17;;;;;;;12.02;100.00;98611.59;5217275;22;20575;-91
2022/10/13 06:03:22;;;;;;;18.10;13.40;;;;;;;12.03;100.00;98605.44;5216798;22;20606;-91
2022/10/13 06:05:27;;;;;;;24.53;14.50;;;;;;;12.08;100.00;98611.19;5217436;22;20620;-91
2022/10/13 06:07:31;;;;;;;18.03;13.97;;;;;;;12.12;99.86;98604.81;5217688;22;21125;-91
2022/10/13 06:09:38;;;;;;;20.50;14.87;;;;;;;12.17;100.00;98612.38;5218056;22;20658;-91
2022/10/13 06:11:43;;;;;;;19.40;14.47;;;;;;;12.19;100.00;98608.69;5217351;22;20624;-92
2022/10/13 06:13:46;;;;;;;26.10;14.73;;;;;;;12.20;100.00;98597.31;5217462;22;20628;-91
2022/10/13 06:15:50;;;;;;;18.37;13.80;;;;;;;12.25;100.00;98603.06;5217538;22;20575;-92
2022/10/13 06:17:54;;;;;;;20.50;13.83;;;;;;;12.26;100.00;98594.28;5217614;22;20578;-91
2022/10/13 06:19:58;;;;;;;22.70;14.43;;;;;;;12.32;100.00;98583.41;5217925;22;20581;-91
2022/10/13 06:22:02;;;;;;;19.20;14.83;;;;;;;12.30;100.00;98583.50;5190351;22;20601;-91
2022/10/13 06:24:06;;;;;;;20.20;15.20;;;;;;;12.36;100.00;98575.25;5217149;22;20716;-91
2022/10/13 06:26:09;;;;;;;19.17;13.77;;;;;;;12.43;100.00;98581.75;5191612;22;20575;-92
2022/10/13 06:28:14;;;;;;;18.43;14.20;;;;;;;12.51;100.00;98586.44;5217941;22;20582;-92
2022/10/13 06:30:17;;;;;;;21.63;14.20;;;;;;;12.53;100.00;98581.97;5217112;22;20579;-92
2022/10/13 06:32:20;;;;;;;20.20;14.30;;;;;;;12.57;100.00;98596.50;5243332;22;20580;-91
2022/10/13 06:34:27;;;;;;;21.83;14.03;;;;;;;12.60;100.00;98591.91;5243479;22;21139;-91
2022/10/13 06:36:30;;;;;;;20.00;14.10;;;;;;;12.65;100.00;98602.06;5192400;22;20629;-91
2022/10/13 06:38:34;;;;;;;21.00;14.83;;;;;;;12.71;100.00;98610.31;5217698;22;20616;-92
2022/10/13 06:40:37;;;;;;;24.93;15.33;;;;;;;12.76;100.00;98606.47;5218280;22;20570;-91
2022/10/13 06:42:40;;;;;;;22.53;16.40;;;;;;;12.77;100.00;98612.50;5216560;22;20976;-91
2022/10/13 06:44:45;;;;;;;19.90;14.30;;;;;;;12.79;100.00;98611.47;5216793;22;20613;-92
2022/10/13 06:46:48;;;;;;;20.03;15.40;;;;;;;12.79;100.00;98619.34;5217947;22;20657;-92
2022/10/13 06:48:52;;;;;;;19.30;16.00;;;;;;;12.77;100.00;98615.97;5217963;22;20582;-91
2022/10/13 06:51:00;;;;;;;19.40;15.27;;;;;;;12.79;100.00;98608.00;5218268;22;20620;-91
2022/10/13 06:53:04;;;;;;;23.77;16.37;;;;;;;12.82;100.00;98605.19;5218164;22;20578;-92
2022/10/13 06:55:07;;;;;;;20.47;15.97;;;;;;;12.82;100.00;98603.44;5218038;22;20577;-91
2022/10/13 06:57:11;;;;;;;21.70;16.17;;;;;;;12.84;100.00;98588.47;5218171;22;20919;-91
2022/10/13 06:59:14;;;;;;;23.90;15.63;;;;;;;12.88;100.00;98596.94;5243554;22;20573;-91
2022/10/13 07:01:22;;;;;;;21.23;16.40;;;;;;;12.86;100.00;98602.28;5218112;22;20892;-91
2022/10/13 07:03:25;;;;;;;20.80;16.10;;;;;;;12.87;100.00;98597.88;5218202;22;20577;-91
2022/10/13 07:05:28;;;;;;;21.07;15.90;;;;;;;12.88;100.00;98600.38;5217874;22;20634;-91
2022/10/13 07:07:32;;;;;;;24.40;16.00;;;;;;;12.93;100.00;98608.78;5244169;22;20926;-91
2022/10/13 07:09:35;;;;;;;18.93;15.30;;;;;;;12.95;100.00;98601.63;5218199;22;20999;-91
2022/10/13 07:11:38;;;;;;;24.07;16.27;;;;;;;13.01;100.00;98606.44;5218350;22;20659;-91
2022/10/13 07:13:42;;;;;;;26.37;16.70;;;;;;;13.04;100.00;98610.66;5218238;22;20613;-91
2022/10/13 07:15:50;;;;;;;21.97;16.23;;;;;;;13.11;100.00;98612.72;5245580;22;20569;-91
2022/10/13 07:17:54;;;;;;;18.53;16.30;;;;;;;13.17;100.00;98612.31;5218368;22;20590;-91
2022/10/13 07:19:57;;;;;;;22.07;18.20;;;;;;;13.21;100.00;98611.97;5192810;22;20583;-90
2022/10/13 07:22:06;;;;;;;23.13;15.70;;;;;;;13.26;100.00;98603.75;5218633;22;20570;-91
2022/10/13 07:24:11;;;;;;;23.03;16.33;;;;;;;13.36;100.00;98604.81;5218440;22;20652;-91
2022/10/13 07:26:15;;;;;;;21.00;16.00;;;;;;;13.41;100.00;98600.91;5192777;22;20639;-91
2022/10/13 07:28:19;;;;;;;21.53;15.30;;;;;;;13.46;100.00;98595.34;5218562;22;20572;-91
2022/10/13 07:30:22;;;;;;;20.30;16.47;;;;;;;13.54;100.00;98600.88;5245913;22;20650;-92
2022/10/13 07:32:25;;;;;;;21.30;14.97;;;;;;;13.59;100.00;98607.47;5218226;22;20963;-92
2022/10/13 07:34:31;;;;;;;24.27;16.83;;;;;;;13.61;100.00;98602.94;5217923;22;20685;-91
2022/10/13 07:36:36;;;;;;;21.50;15.43;;;;;;;13.64;100.00;98608.78;5192776;22;20575;-91
2022/10/13 07:38:39;;;;;;;19.90;15.93;;;;;;;13.70;100.00;98612.75;5245684;22;21206;-91
2022/10/13 07:40:42;;;;;;;22.40;15.57;;;;;;;13.74;100.00;98608.94;5218239;22;20577;-91
2022/10/13 07:42:45;;;;;;;23.30;15.77;;;;;;;13.81;100.00;98604.94;5245945;22;20566;-91
2022/10/13 07:44:49;;;;;;;20.90;16.70;;;;;;;13.86;100.00;98602.81;5245660;22;20676;-91
2022/10/13 07:46:52;;;;;;;22.67;16.40;;;;;;;13.92;100.00;98605.00;5218345;22;20602;-91
2022/10/13 07:48:55;;;;;;;21.90;16.47;;;;;;;13.96;100.00;98594.16;5192764;22;20592;-91
2022/10/13 07:51:01;;;;;;;28.13;16.80;;;;;;;14.02;100.00;98598.13;5192656;22;20587;-90
2022/10/13 07:53:04;;;;;;;23.73;15.83;;;;;;;14.08;100.00;98597.72;5218319;22;20640;-91
2022/10/13 07:55:08;;;;;;;22.90;17.70;;;;;;;14.13;100.00;98590.31;5219431;22;20908;-90
2022/10/13 07:57:11;;;;;;;24.47;16.33;;;;;;;14.22;100.00;98591.31;5218751;22;20617;-92
2022/10/13 07:59:14;;;;;;;23.57;16.63;;;;;;;14.33;100.00;98590.53;5219186;22;20579;-92
2022/10/13 08:01:17;;;;;;;21.37;15.80;;;;;;;14.41;100.00;98591.59;5218605;22;20616;-92
2022/10/13 08:03:20;;;;;;;24.37;14.30;;;;;;;14.48;100.00;98584.94;5193107;22;20580;-91
2022/10/13 08:05:23;;;;;;;18.20;14.30;;;;;;;14.56;100.00;98595.69;5218959;22;20630;-92
2022/10/13 08:07:28;;;;;;;18.60;14.30;;;;;;;14.65;100.00;98598.44;5218386;22;20572;-92
2022/10/13 08:09:31;;;;;;;23.47;15.60;;;;;;;14.76;99.25;98598.47;5218614;22;21016;-94
2022/10/13 08:11:35;;;;;;;23.43;15.23;;;;;;;14.88;99.89;98599.31;5192953;22;20622;-92
2022/10/13 08:13:38;;;;;;;20.00;16.03;;;;;;;14.90;100.00;98594.75;5193258;22;20572;-93
2022/10/13 08:15:48;;;;;;;21.13;15.57;;;;;;;14.97;99.38;98598.59;5218616;22;21129;-94
2022/10/13 08:17:51;;;;;;;22.13;15.10;;;;;;;14.95;98.33;98590.84;5218484;22;20613;-91
2022/10/13 08:19:55;;;;;;;20.90;13.70;;;;;;;14.98;97.35;98597.66;5192648;22;20605;-93
2022/10/13 08:22:01;;;;;;;23.77;14.40;;;;;;;15.05;96.67;98596.19;5218643;22;21152;-94
2022/10/13 08:24:07;;;;;;;21.57;14.20;;;;;;;15.14;96.50;98593.72;5218525;22;20580;-92
2022/10/13 08:26:15;;;;;;;21.70;15.43;;;;;;;15.31;97.00;98593.25;5218540;22;20611;-92
2022/10/13 08:28:20;;;;;;;24.60;14.60;;;;;;;15.46;96.53;98589.41;5218719;22;20678;-92
2022/10/13 08:30:24;;;;;;;21.57;14.50;;;;;;;15.58;97.04;98595.34;5244554;22;20624;-92
2022/10/13 08:32:27;;;;;;;19.43;14.00;;;;;;;15.66;96.27;98587.66;5218413;22;20583;-92
2022/10/13 08:34:30;;;;;;;20.90;13.73;;;;;;;15.66;95.67;98577.13;5218030;22;20580;-91
2022/10/13 08:36:34;;;;;;;19.20;13.30;;;;;;;15.62;95.21;98570.47;5218543;22;20629;-94
2022/10/13 08:38:37;;;;;;;19.20;12.80;;;;;;;15.60;93.86;98585.50;5219276;22;20584;-94
2022/10/13 08:40:46;;;;;;;17.93;13.50;;;;;;;15.52;95.29;98575.78;5218324;22;20584;-91
2022/10/13 08:42:50;;;;;;;20.07;13.10;;;;;;;15.63;93.74;98577.38;5218743;22;20564;-91
2022/10/13 08:44:58;;;;;;;16.07;12.50;;;;;;;15.88;94.37;98571.00;5218236;22;20584;-92
2022/10/13 08:47:34;;;;;;;21.60;13.83;;;;;;;16.18;93.66;98585.09;5244428;22;20611;-93
2022/10/13 08:49:41;;;;;;;17.30;13.90;;;;;;;16.36;92.63;98579.16;5218455;22;20658;-92
2022/10/13 08:51:44;;;;;;;16.30;12.33;;;;;;;16.45;92.15;98590.69;5218204;22;20581;-91
2022/10/13 08:53:47;;;;;;;20.40;13.27;;;;;;;16.60;91.37;98583.19;5218199;22;20582;-93
2022/10/13 08:55:56;;;;;;;17.90;13.90;;;;;;;16.76;90.64;98577.44;5218256;22;20577;-92
2022/10/13 08:57:59;;;;;;;17.60;13.03;;;;;;;16.82;90.44;98572.47;5218113;22;20576;-91
2022/10/13 09:00:04;;;;;;;16.73;12.73;;;;;;;16.90;91.03;98575.31;5245897;22;20552;-92
2022/10/13 09:02:12;;;;;;;17.30;13.03;;;;;;;17.11;91.81;98578.75;5218399;22;20577;-93
2022/10/13 09:04:28;;;;;;;18.57;12.87;;;;;;;17.31;91.52;98585.78;5218403;22;20589;-92
2022/10/13 09:06:34;;;;;;;18.43;14.10;;;;;;;17.48;90.42;98589.44;5192513;22;20625;-93
2022/10/13 09:08:42;;;;;;;17.90;12.80;;;;;;;17.61;89.54;98595.28;5218170;22;21089;-92
2022/10/13 09:10:47;;;;;;;15.47;11.97;;;;;;;17.68;89.07;98590.31;5218291;22;20936;-93
2022/10/13 09:12:57;;;;;;;22.53;12.23;;;;;;;17.76;89.25;98588.66;5218967;22;20668;-93
2022/10/13 09:15:04;;;;;;;15.93;12.47;;;;;;;17.82;88.25;98582.00;5218080;22;20580;-94
2022/10/13 09:17:15;;;;;;;16.87;11.97;;;;;;;17.92;88.47;98589.78;5218493;22;20594;-94
2022/10/13 09:19:24;;;;;;;15.00;12.07;;;;;;;18.01;87.83;98578.41;5219068;22;21104;-93
2022/10/13 09:21:29;;;;;;;15.73;11.00;;;;;;;18.07;88.04;98577.00;5219017;22;20573;-94
2022/10/13 09:23:32;;;;;;;18.50;11.73;;;;;;;18.16;86.29;98571.78;5218642;22;20619;-94
2022/10/13 09:25:41;;;;;;;18.07;11.80;;;;;;;18.23;86.44;98572.88;5218752;22;20610;-93
2022/10/13 09:27:47;;;;;;;17.60;12.47;;;;;;;18.25;87.00;98572.72;5218323;22;20662;-94
2022/10/13 09:29:51;;;;;;;15.87;12.70;;;;;;;18.26;86.77;98566.47;5218574;22;20574;-94
2022/10/13 09:32:08;;;;;;;20.90;13.20;;;;;;;18.24;85.91;98560.50;5194207;22;20666;-93
2022/10/13 09:34:15;;;;;;;15.33;10.97;;;;;;;18.20;83.75;98569.69;5219748;22;20630;-93